createdAt,value
2018-04-17T00:00:24.900Z,18.10
2018-04-17T00:02:53.349Z,17.33
2018-04-17T00:05:21.344Z,17.50
2018-04-17T00:07:48.922Z,16.83
2018-04-17T00:10:17.258Z,16.07
2018-04-17T00:12:44.943Z,15.50
2018-04-17T00:15:12.521Z,16.13
2018-04-17T00:17:40.104Z,16.43
2018-04-17T00:20:08.656Z,16.27
2018-04-17T00:22:36.219Z,15.77
2018-04-17T00:25:03.793Z,16.97
2018-04-17T00:27:31.494Z,15.93
2018-04-17T00:29:59.821Z,14.60
2018-04-17T00:32:27.397Z,14.57
2018-04-17T00:34:55.092Z,15.47
2018-04-17T00:37:23.428Z,15.70
2018-04-17T00:39:51.008Z,15.90
2018-04-17T00:42:18.719Z,17.23
2018-04-17T00:44:46.303Z,15.67
2018-04-17T00:47:13.874Z,17.70
2018-04-17T00:49:41.670Z,18.00
2018-04-17T00:52:09.247Z,19.30
2018-04-17T00:54:36.823Z,18.43
2018-04-17T00:57:04.559Z,20.67
2018-04-17T00:59:32.128Z,21.00
2018-04-17T01:01:59.712Z,20.77
2018-04-17T01:04:27.403Z,21.53
2018-04-17T01:06:55.730Z,22.83
2018-04-17T01:09:23.332Z,25.57
2018-04-17T01:11:50.933Z,27.03
2018-04-17T01:14:18.557Z,27.23
2018-04-17T01:16:46.102Z,29.57
2018-04-17T01:19:13.689Z,28.40
2018-04-17T01:21:41.261Z,29.50
2018-04-17T01:24:09.606Z,30.00
2018-04-17T01:26:37.285Z,31.10
2018-04-17T01:29:04.842Z,33.70
2018-04-17T01:31:32.401Z,32.33
2018-04-17T01:34:00.081Z,32.93
2018-04-17T01:36:27.645Z,34.43
2018-04-17T01:38:55.209Z,33.50
2018-04-17T01:41:22.889Z,34.13
2018-04-17T01:43:50.458Z,34.70
2018-04-17T01:46:18.014Z,35.50
2018-04-17T01:48:45.598Z,37.70
2018-04-17T01:51:14.017Z,36.60
2018-04-17T01:53:41.593Z,35.83
2018-04-17T01:56:09.206Z,34.93
2018-04-17T01:58:37.559Z,36.00
2018-04-17T02:01:05.111Z,33.93
2018-04-17T02:03:32.810Z,32.60
2018-04-17T02:06:00.366Z,32.50
2018-04-17T02:08:27.964Z,33.30
2018-04-17T02:10:56.411Z,33.70
2018-04-17T02:13:23.988Z,30.67
2018-04-17T02:15:51.545Z,29.73
2018-04-17T02:18:19.252Z,30.43
2018-04-17T02:20:46.819Z,33.07
2018-04-17T02:23:14.406Z,32.00
2018-04-17T02:25:42.006Z,33.63
2018-04-17T02:28:09.583Z,31.67
2018-04-17T02:30:37.146Z,34.47
2018-04-17T02:33:04.882Z,32.00
2018-04-17T02:35:32.451Z,33.27
2018-04-17T02:38:00.778Z,32.60
2018-04-17T02:40:29.236Z,33.13
2018-04-17T02:42:56.805Z,33.27
2018-04-17T02:45:24.384Z,33.00
2018-04-17T02:47:52.843Z,33.47
2018-04-17T02:50:20.470Z,32.50
2018-04-17T02:52:48.041Z,32.23
2018-04-17T02:55:15.723Z,31.23
2018-04-17T02:57:44.051Z,32.93
2018-04-17T03:00:12.389Z,33.23
2018-04-17T03:02:39.982Z,34.43
2018-04-17T03:05:07.571Z,36.63
2018-04-17T03:07:35.128Z,35.27
2018-04-17T03:10:03.695Z,34.73
2018-04-17T03:12:31.255Z,33.77
2018-04-17T03:14:58.829Z,33.17
2018-04-17T03:17:26.495Z,31.80
2018-04-17T03:19:54.056Z,31.03
2018-04-17T03:22:21.636Z,30.30
2018-04-17T03:24:50.134Z,31.77
2018-04-17T03:27:17.696Z,31.07
2018-04-17T03:29:45.268Z,27.03
2018-04-17T03:32:12.857Z,27.37
2018-04-17T03:34:40.417Z,26.33
2018-04-17T03:37:07.982Z,24.77
2018-04-17T03:39:35.653Z,23.43
2018-04-17T03:42:03.221Z,24.67
2018-04-17T03:44:30.788Z,24.00
2018-04-17T03:46:58.404Z,22.60
2018-04-17T03:49:26.738Z,24.20
2018-04-17T03:51:54.315Z,23.63
2018-04-17T03:54:22.104Z,23.23
2018-04-17T03:56:50.454Z,23.30
2018-04-17T03:59:18.058Z,24.20
2018-04-17T04:01:46.440Z,23.87
2018-04-17T04:04:14.786Z,25.00
2018-04-17T04:06:42.486Z,25.40
2018-04-17T04:09:10.927Z,28.53
2018-04-17T04:11:38.494Z,29.27
2018-04-17T04:14:06.070Z,30.93
2018-04-17T04:17:00.594Z,30.57
2018-04-17T04:19:40.767Z,30.80
2018-04-17T04:22:20.187Z,30.27
2018-04-17T04:24:59.758Z,31.53
2018-04-17T04:27:27.502Z,32.27
2018-04-17T04:29:56.019Z,31.27
2018-04-17T04:32:23.607Z,35.47
2018-04-17T04:34:51.283Z,37.83
2018-04-17T04:37:19.624Z,36.83
2018-04-17T04:39:47.203Z,34.67
2018-04-17T04:42:14.898Z,33.50
2018-04-17T04:44:42.463Z,33.03
2018-04-17T04:47:10.806Z,32.87
2018-04-17T04:49:38.492Z,30.20
2018-04-17T04:52:06.235Z,31.43
2018-04-17T04:54:33.781Z,32.83
2018-04-17T04:57:01.697Z,31.97
2018-04-17T04:59:29.375Z,33.17
2018-04-17T05:01:56.959Z,31.00
2018-04-17T05:04:25.547Z,31.27
2018-04-17T05:06:53.879Z,31.27
2018-04-17T05:09:21.485Z,31.33
2018-04-17T05:11:49.853Z,28.80
2018-04-17T05:14:17.443Z,30.07
2018-04-17T05:16:45.006Z,29.67
2018-04-17T05:19:13.582Z,30.93
2018-04-17T05:21:41.922Z,29.53
2018-04-17T05:24:09.491Z,28.93
2018-04-17T05:26:37.171Z,28.90
2018-04-17T05:29:04.741Z,29.10
2018-04-17T05:31:32.315Z,30.17
2018-04-17T05:34:00.053Z,29.17
2018-04-17T05:36:27.669Z,27.50
2018-04-17T05:38:56.029Z,29.73
2018-04-17T05:41:23.628Z,30.77
2018-04-17T05:43:51.211Z,31.63
2018-04-17T05:46:18.778Z,31.93
2018-04-17T05:48:46.406Z,33.13
2018-04-17T05:51:14.874Z,35.53
2018-04-17T05:53:43.249Z,35.33
2018-04-17T05:56:10.827Z,37.33
2018-04-17T05:58:38.442Z,38.17
2018-04-17T06:01:06.151Z,39.17
2018-04-17T06:03:33.746Z,39.30
2018-04-17T06:06:01.319Z,39.80
2018-04-17T06:08:29.133Z,40.63
2018-04-17T06:10:57.615Z,40.80
2018-04-17T06:13:25.182Z,40.80
2018-04-17T06:15:52.819Z,42.97
2018-04-17T06:18:20.416Z,41.83
2018-04-17T06:20:47.984Z,40.57
2018-04-17T06:23:15.720Z,42.70
2018-04-17T06:25:43.290Z,42.67
2018-04-17T06:28:10.841Z,41.63
2018-04-17T06:30:38.578Z,41.47
2018-04-17T06:33:06.913Z,42.00
2018-04-17T06:35:34.487Z,40.00
2018-04-17T06:38:03.084Z,41.17
2018-04-17T06:40:30.640Z,40.43
2018-04-17T06:42:58.213Z,40.57
2018-04-17T06:45:25.893Z,38.27
2018-04-17T06:47:54.244Z,38.80
2018-04-17T06:50:21.837Z,38.30
2018-04-17T06:52:50.273Z,37.17
2018-04-17T06:55:17.816Z,38.13
2018-04-17T06:57:45.384Z,37.27
2018-04-17T07:00:13.084Z,36.80
2018-04-17T07:02:40.675Z,36.23
2018-04-17T07:05:08.242Z,36.93
2018-04-17T07:07:35.928Z,35.87
2018-04-17T07:10:04.280Z,34.83
2018-04-17T07:12:31.936Z,32.47
2018-04-17T07:14:59.740Z,34.93
2018-04-17T07:17:28.074Z,33.93
2018-04-17T07:19:55.749Z,32.70
2018-04-17T07:22:23.338Z,32.30
2018-04-17T07:24:50.947Z,30.87
2018-04-17T07:27:18.520Z,31.13
2018-04-17T07:29:46.309Z,31.33
2018-04-17T07:32:13.896Z,29.67
2018-04-17T07:34:41.497Z,29.17
2018-04-17T07:37:09.961Z,29.57
2018-04-17T07:39:38.295Z,30.97
2018-04-17T07:42:05.854Z,30.40
2018-04-17T07:44:33.532Z,30.17
2018-04-17T07:47:12.930Z,29.63
2018-04-17T07:49:40.631Z,28.27
2018-04-17T07:52:08.218Z,28.27
2018-04-17T07:54:35.797Z,30.83
2018-04-17T07:57:03.510Z,29.53
2018-04-17T07:59:31.093Z,27.57
2018-04-17T08:01:58.664Z,28.57
2018-04-17T08:04:26.261Z,28.17
2018-04-17T08:06:53.844Z,28.17
2018-04-17T08:09:22.190Z,28.10
2018-04-17T08:11:49.868Z,28.13
2018-04-17T08:14:17.410Z,28.80
2018-04-17T08:16:45.033Z,28.50
2018-04-17T08:19:12.635Z,28.80
2018-04-17T08:21:40.221Z,27.77
2018-04-17T08:24:07.806Z,26.80
2018-04-17T08:26:36.154Z,28.23
2018-04-17T08:29:03.745Z,27.40
2018-04-17T08:31:32.089Z,28.67
2018-04-17T08:33:59.782Z,28.30
2018-04-17T08:36:27.340Z,26.47
2018-04-17T08:38:54.923Z,26.03
2018-04-17T08:41:23.392Z,29.93
2018-04-17T08:43:50.977Z,27.63
2018-04-17T08:46:19.320Z,31.67
2018-04-17T08:48:47.015Z,29.20
2018-04-17T08:51:15.375Z,28.13
2018-04-17T08:53:42.957Z,29.27
2018-04-17T08:56:10.720Z,28.50
2018-04-17T08:58:38.293Z,29.73
2018-04-17T09:01:05.889Z,27.63
2018-04-17T09:03:33.849Z,26.97
2018-04-17T09:06:01.493Z,28.10
2018-04-17T09:08:29.111Z,25.40
2018-04-17T09:10:56.870Z,27.13
2018-04-17T09:13:24.450Z,28.03
2018-04-17T09:15:52.031Z,27.30
2018-04-17T09:18:19.809Z,28.37
2018-04-17T09:20:47.369Z,27.97
2018-04-17T09:23:14.940Z,26.73
2018-04-17T09:25:42.615Z,27.30
2018-04-17T09:28:10.193Z,25.57
2018-04-17T09:30:37.785Z,26.03
2018-04-17T09:33:05.505Z,27.07
2018-04-17T09:35:33.179Z,25.37
2018-04-17T09:38:00.741Z,23.40
2018-04-17T09:40:28.415Z,22.23
2018-04-17T09:42:55.995Z,19.77
2018-04-17T09:45:24.344Z,17.10
2018-04-17T09:47:52.040Z,16.13
2018-04-17T09:50:20.383Z,16.70
2018-04-17T09:52:47.956Z,19.33
2018-04-17T09:55:15.553Z,19.00
2018-04-17T09:57:43.929Z,16.70
2018-04-17T10:00:11.524Z,16.83
2018-04-17T10:02:39.119Z,18.87
2018-04-17T10:05:06.817Z,20.17
2018-04-17T10:07:34.412Z,19.83
2018-04-17T10:10:02.909Z,21.30
2018-04-17T10:12:30.549Z,20.53
2018-04-17T10:14:59.078Z,20.20
2018-04-17T10:17:26.832Z,20.33
2018-04-17T10:19:54.525Z,20.00
2018-04-17T10:22:22.283Z,19.63
2018-04-17T10:24:49.998Z,19.07
2018-04-17T10:27:17.619Z,17.47
2018-04-17T10:29:45.248Z,18.37
2018-04-17T10:32:12.957Z,16.37
2018-04-17T10:34:40.529Z,14.80
2018-04-17T10:37:08.120Z,16.13
2018-04-17T10:39:35.741Z,14.60
2018-04-17T10:42:03.352Z,15.00
2018-04-17T10:44:30.930Z,12.23
2018-04-17T10:46:59.411Z,11.93
2018-04-17T10:49:27.740Z,12.90
2018-04-17T10:51:55.379Z,12.83
2018-04-17T10:54:23.103Z,12.90
2018-04-17T10:56:51.458Z,12.87
2018-04-17T10:59:19.052Z,11.93
2018-04-17T11:01:46.683Z,11.30
2018-04-17T11:04:14.266Z,9.47
2018-04-17T11:06:41.818Z,8.77
2018-04-17T11:09:09.831Z,8.40
2018-04-17T11:11:38.184Z,8.97
2018-04-17T11:14:05.767Z,7.90
2018-04-17T11:16:33.378Z,8.93
2018-04-17T11:19:00.959Z,8.63
2018-04-17T11:21:28.557Z,8.20
2018-04-17T11:23:56.147Z,6.60
2018-04-17T11:26:24.491Z,6.17
2018-04-17T11:28:52.051Z,5.00
2018-04-17T11:31:19.752Z,5.57
2018-04-17T11:33:47.318Z,6.40
2018-04-17T11:36:14.894Z,5.70
2018-04-17T11:38:43.354Z,6.70
2018-04-17T11:41:10.935Z,6.30
2018-04-17T11:43:39.258Z,5.73
2018-04-17T11:46:06.945Z,6.00
2018-04-17T11:48:34.515Z,5.93
2018-04-17T11:51:02.079Z,5.60
2018-04-17T11:53:29.766Z,6.57
2018-04-17T11:55:57.326Z,5.60
2018-04-17T11:58:24.883Z,5.63
2018-04-17T12:00:52.575Z,6.27
2018-04-17T12:03:20.156Z,6.30
2018-04-17T12:05:48.491Z,5.60
2018-04-17T12:08:16.130Z,5.60
2018-04-17T12:10:43.721Z,5.60
2018-04-17T12:13:12.171Z,7.03
2018-04-17T12:15:39.947Z,5.40
2018-04-17T12:18:07.516Z,6.30
2018-04-17T12:20:35.140Z,5.50
2018-04-17T12:23:03.508Z,5.30
2018-04-17T12:25:31.845Z,5.37
2018-04-17T12:27:59.470Z,6.17
2018-04-17T12:30:27.935Z,6.77
2018-04-17T12:32:55.508Z,6.40
2018-04-17T12:35:23.908Z,6.70
2018-04-17T12:37:52.477Z,6.10
2018-04-17T12:40:20.054Z,5.80
2018-04-17T12:42:48.377Z,5.63
2018-04-17T12:45:16.056Z,5.67
2018-04-17T12:47:43.635Z,5.40
2018-04-17T12:50:11.205Z,6.47
2018-04-17T12:52:39.027Z,6.33
2018-04-17T12:55:06.615Z,6.77
2018-04-17T12:57:34.948Z,6.17
2018-04-17T13:00:03.445Z,5.97
2018-04-17T13:02:31.024Z,7.13
2018-04-17T13:04:59.959Z,7.80
2018-04-17T13:07:27.562Z,7.43
2018-04-17T13:09:55.933Z,8.60
2018-04-17T13:12:24.429Z,8.13
2018-04-17T13:14:52.095Z,6.80
2018-04-17T13:17:20.443Z,6.10
2018-04-17T13:19:49.077Z,6.53
2018-04-17T13:22:16.637Z,7.67
2018-04-17T13:24:45.039Z,6.53
2018-04-17T13:27:12.612Z,6.43
2018-04-17T13:29:40.183Z,7.60
2018-04-17T13:32:09.440Z,7.50
2018-04-17T13:34:37.808Z,7.37
2018-04-17T13:37:05.435Z,6.20
2018-04-17T13:39:33.199Z,6.17
2018-04-17T13:42:00.800Z,7.20
2018-04-17T13:44:28.483Z,6.90
2018-04-17T13:46:56.873Z,7.33
2018-04-17T13:49:25.230Z,6.67
2018-04-17T13:51:52.791Z,6.80
2018-04-17T13:54:20.449Z,6.83
2018-04-17T13:56:48.079Z,6.73
2018-04-17T13:59:15.721Z,7.43
2018-04-17T14:01:44.215Z,7.00
2018-04-17T14:04:11.850Z,7.10
2018-04-17T14:06:40.272Z,8.80
2018-04-17T14:09:07.889Z,6.80
2018-04-17T14:11:36.056Z,6.77
2018-04-17T14:14:03.730Z,7.33
2018-04-17T14:16:31.452Z,6.63
2018-04-17T14:18:59.047Z,7.03
2018-04-17T14:21:26.673Z,6.97
2018-04-17T14:23:54.515Z,6.63
2018-04-17T14:26:22.903Z,7.07
2018-04-17T14:28:50.636Z,7.20
2018-04-17T14:31:18.273Z,7.37
2018-04-17T14:33:45.901Z,8.20
2018-04-17T14:36:13.507Z,7.60
2018-04-17T14:38:41.416Z,7.30
2018-04-17T14:41:08.994Z,6.70
2018-04-17T14:43:36.598Z,6.90
2018-04-17T14:46:04.331Z,7.37
2018-04-17T14:48:31.960Z,7.23
2018-04-17T14:50:59.649Z,7.50
2018-04-17T14:53:27.368Z,7.20
2018-04-17T14:55:54.995Z,6.97
2018-04-17T14:58:22.587Z,7.27
2018-04-17T15:00:51.132Z,7.03
2018-04-17T15:03:18.777Z,6.83
2018-04-17T15:05:46.417Z,6.63
2018-04-17T15:08:14.179Z,7.13
2018-04-17T15:10:59.551Z,7.50
2018-04-17T15:13:27.172Z,6.87
2018-04-17T15:15:54.815Z,7.47
2018-04-17T15:18:22.389Z,6.10
2018-04-17T15:20:50.003Z,6.33
2018-04-17T15:23:17.570Z,5.87
2018-04-17T15:25:45.147Z,7.43
2018-04-17T15:28:12.896Z,7.13
2018-04-17T15:30:41.257Z,7.30
2018-04-17T15:33:08.909Z,6.83
2018-04-17T15:35:36.637Z,6.57
2018-04-17T15:38:04.226Z,7.60
2018-04-17T15:40:32.617Z,6.87
2018-04-17T15:43:01.701Z,6.77
2018-04-17T15:45:29.239Z,5.97
2018-04-17T15:47:56.769Z,6.63
2018-04-17T15:50:25.227Z,7.57
2018-04-17T15:52:52.764Z,6.80
2018-04-17T15:55:20.361Z,6.83
2018-04-17T15:57:48.050Z,6.03
2018-04-17T16:00:15.682Z,6.83
2018-04-17T16:02:43.207Z,6.60
2018-04-17T16:05:10.939Z,7.67
2018-04-17T16:07:38.546Z,7.53
2018-04-17T16:10:06.225Z,7.90
2018-04-17T16:12:34.004Z,7.50
2018-04-17T16:15:01.577Z,7.17
2018-04-17T16:17:29.106Z,7.60
2018-04-17T16:19:56.954Z,8.13
2018-04-17T16:22:25.369Z,8.77
2018-04-17T16:24:52.928Z,7.43
2018-04-17T16:27:20.695Z,7.50
2018-04-17T16:29:49.170Z,7.93
2018-04-17T16:32:16.782Z,8.17
2018-04-17T16:34:44.449Z,8.23
2018-04-17T16:37:11.988Z,8.53
2018-04-17T16:39:40.283Z,7.70
2018-04-17T16:42:07.942Z,8.10
2018-04-17T16:44:36.265Z,7.47
2018-04-17T16:47:03.819Z,6.93
2018-04-17T16:49:31.523Z,7.40
2018-04-17T16:51:59.822Z,6.70
2018-04-17T16:54:28.294Z,7.20
2018-04-17T16:56:55.867Z,7.63
2018-04-17T16:59:23.446Z,7.90
2018-04-17T17:01:51.809Z,7.83
2018-04-17T17:04:19.353Z,8.33
2018-04-17T17:06:47.737Z,7.50
2018-04-17T17:09:16.127Z,7.70
2018-04-17T17:11:44.445Z,7.67
2018-04-17T17:14:12.027Z,8.37
2018-04-17T17:16:39.709Z,8.83
2018-04-17T17:19:07.277Z,8.70
2018-04-17T17:21:34.827Z,9.30
2018-04-17T17:24:02.543Z,9.70
2018-04-17T17:26:30.098Z,9.00
2018-04-17T17:28:58.439Z,8.60
2018-04-17T17:31:26.126Z,9.87
2018-04-17T17:33:54.470Z,9.27
2018-04-17T17:36:22.072Z,9.73
2018-04-17T17:38:49.819Z,10.30
2018-04-17T17:41:17.360Z,10.73
2018-04-17T17:43:44.924Z,10.13
2018-04-17T17:46:12.673Z,10.73
2018-04-17T17:48:40.314Z,10.17
2018-04-17T17:51:08.831Z,11.60
2018-04-17T17:53:36.628Z,11.00
2018-04-17T17:56:04.183Z,11.47
2018-04-17T17:58:31.739Z,12.60
2018-04-17T18:00:59.411Z,12.10
2018-04-17T18:03:27.120Z,12.00
2018-04-17T18:05:54.689Z,11.90
2018-04-17T18:08:22.400Z,12.10
2018-04-17T18:10:49.958Z,11.23
2018-04-17T18:13:17.543Z,10.43
2018-04-17T18:15:45.167Z,12.10
2018-04-17T18:18:12.864Z,11.57
2018-04-17T18:20:40.427Z,11.10
2018-04-17T18:23:08.039Z,11.53
2018-04-17T18:25:35.585Z,12.23
2018-04-17T18:28:03.143Z,12.07
2018-04-17T18:30:30.878Z,12.40
2018-04-17T18:32:58.461Z,12.07
2018-04-17T18:35:26.160Z,11.83
2018-04-17T18:37:53.966Z,12.27
2018-04-17T18:40:21.572Z,11.60
2018-04-17T18:42:49.158Z,11.67
2018-04-17T18:45:16.886Z,11.03
2018-04-17T18:47:44.455Z,20.67
2018-04-17T18:50:12.046Z,27.93
2018-04-17T18:52:39.814Z,31.40
2018-04-17T18:55:07.364Z,64.60
2018-04-17T18:57:34.968Z,62.20
2018-04-17T19:00:03.471Z,77.20
2018-04-17T19:02:31.840Z,84.27
2018-04-17T19:05:00.279Z,76.70
2018-04-17T19:07:27.840Z,66.33
2018-04-17T19:09:55.414Z,59.57
2018-04-17T19:12:23.108Z,60.30
2018-04-17T19:14:50.687Z,53.43
2018-04-17T19:17:18.281Z,53.57
2018-04-17T19:19:45.884Z,52.47
2018-04-17T19:22:13.450Z,53.33
2018-04-17T19:24:40.996Z,55.70
2018-04-17T19:27:08.744Z,59.87
2018-04-17T19:29:36.304Z,60.23
2018-04-17T19:32:03.881Z,53.77
2018-04-17T19:34:31.497Z,45.43
2018-04-17T19:36:59.120Z,40.77
2018-04-17T19:39:26.681Z,38.63
2018-04-17T19:41:54.337Z,38.57
2018-04-17T19:44:21.955Z,34.23
2018-04-17T19:46:49.542Z,30.60
2018-04-17T19:49:17.373Z,30.17
2018-04-17T19:51:45.694Z,29.27
2018-04-17T19:54:14.118Z,26.83
2018-04-17T19:56:41.710Z,25.30
2018-04-17T19:59:09.315Z,25.73
2018-04-17T20:01:37.197Z,24.80
2018-04-17T20:04:04.772Z,23.17
2018-04-17T20:06:32.537Z,22.90
2018-04-17T20:09:00.141Z,20.97
2018-04-17T20:11:27.698Z,19.80
2018-04-17T20:13:55.291Z,19.03
2018-04-17T20:16:23.848Z,19.07
2018-04-17T20:18:51.423Z,20.23
2018-04-17T20:21:18.975Z,19.23
2018-04-17T20:23:46.545Z,19.60
2018-04-17T20:26:14.170Z,20.10
2018-04-17T20:28:41.833Z,20.10
2018-04-17T20:31:09.524Z,19.63
2018-04-17T20:33:37.198Z,20.27
2018-04-17T20:36:04.780Z,19.60
2018-04-17T20:38:32.709Z,19.87
2018-04-17T20:41:00.267Z,20.33
2018-04-17T20:43:27.811Z,21.10
2018-04-17T20:45:56.230Z,21.00
2018-04-17T20:48:23.943Z,21.10
2018-04-17T20:50:51.477Z,22.13
2018-04-17T20:53:19.116Z,22.53
2018-04-17T20:55:46.680Z,24.53
2018-04-17T20:58:14.269Z,23.67
2018-04-17T21:00:42.759Z,22.87
2018-04-17T21:03:10.273Z,25.47
2018-04-17T21:05:37.873Z,28.80
2018-04-17T21:08:05.476Z,43.37
2018-04-17T21:10:33.097Z,43.20
2018-04-17T21:13:00.688Z,38.73
2018-04-17T21:15:29.209Z,33.73
2018-04-17T21:17:56.759Z,34.43
2018-04-17T21:20:25.147Z,32.73
2018-04-17T21:22:53.669Z,33.23
2018-04-17T21:25:21.182Z,34.73
2018-04-17T21:27:48.738Z,41.00
2018-04-17T21:30:16.313Z,43.27
2018-04-17T21:32:44.628Z,43.53
2018-04-17T21:35:12.150Z,43.10
2018-04-17T21:37:39.878Z,43.97
2018-04-17T21:40:07.464Z,43.47
2018-04-17T21:42:35.019Z,45.97
2018-04-17T21:45:02.700Z,40.90
2018-04-17T21:47:30.245Z,51.07
2018-04-17T21:49:57.854Z,40.23
2018-04-17T21:52:25.407Z,38.07
2018-04-17T21:54:52.950Z,41.60
2018-04-17T21:57:21.308Z,32.37
2018-04-17T21:59:49.571Z,34.40
2018-04-17T22:02:17.168Z,35.97
2018-04-17T22:04:44.692Z,31.00
2018-04-17T22:07:13.211Z,25.27
2018-04-17T22:09:40.769Z,23.10
2018-04-17T22:12:08.301Z,22.50
2018-04-17T22:14:36.804Z,21.00
2018-04-17T22:17:04.342Z,20.87
2018-04-17T22:19:32.675Z,21.57
2018-04-17T22:22:00.368Z,22.20
2018-04-17T22:24:27.916Z,20.17
2018-04-17T22:26:55.456Z,20.00
2018-04-17T22:29:23.107Z,21.07
2018-04-17T22:31:50.626Z,20.20
2018-04-17T22:34:35.825Z,19.80
2018-04-17T22:37:03.402Z,22.07
2018-04-17T22:39:30.979Z,22.40
2018-04-17T22:41:58.880Z,23.93
2018-04-17T22:44:26.832Z,23.77
2018-04-17T22:46:54.342Z,25.00
2018-04-17T22:49:22.035Z,26.50
2018-04-17T22:51:49.592Z,28.93
2018-04-17T22:54:17.876Z,28.07
2018-04-17T22:56:46.193Z,28.13
2018-04-17T22:59:13.722Z,29.67
2018-04-17T23:01:42.019Z,29.17
2018-04-17T23:04:09.786Z,28.97
2018-04-17T23:06:37.323Z,32.53
2018-04-17T23:09:06.558Z,33.27
2018-04-17T23:11:34.206Z,32.00
2018-04-17T23:14:01.726Z,32.97
2018-04-17T23:16:29.256Z,32.90
2018-04-17T23:18:56.999Z,32.63
2018-04-17T23:21:24.536Z,32.77
2018-04-17T23:23:52.068Z,31.80
2018-04-17T23:26:19.621Z,32.03
2018-04-17T23:28:47.140Z,33.63
2018-04-17T23:31:15.423Z,33.93
2018-04-17T23:33:43.813Z,34.90
2018-04-17T23:36:12.097Z,36.53
2018-04-17T23:38:39.642Z,33.70
2018-04-17T23:41:08.149Z,31.93
2018-04-17T23:43:35.667Z,33.00
2018-04-17T23:46:03.209Z,34.40
2018-04-17T23:48:30.753Z,38.77
2018-04-17T23:50:58.280Z,37.07
2018-04-17T23:53:25.812Z,36.87
2018-04-17T23:55:53.452Z,40.30
2018-04-17T23:58:20.975Z,47.10
